sensor_id;sensor_type;location;lat;lon;timestamp;pressure;altitude;pressure_sealevel;temperature;humidity
61119;BME280;51448;51.660;5.824;2022-12-18T00:01:26;102735.06;;;-5.41;100.00
61119;BME280;51448;51.660;5.824;2022-12-18T00:03:56;102731.41;;;-5.45;100.00
61119;BME280;51448;51.660;5.824;2022-12-18T00:06:25;102736.41;;;-5.47;100.00
61119;BME280;51448;51.660;5.824;2022-12-18T00:08:56;102739.00;;;-5.47;100.00
61119;BME280;51448;51.660;5.824;2022-12-18T00:11:27;102737.13;;;-5.49;100.00
61119;BME280;51448;51.660;5.824;2022-12-18T00:13:56;102738.47;;;-5.54;100.00
61119;BME280;51448;51.660;5.824;2022-12-18T00:16:26;102733.13;;;-5.57;100.00
61119;BME280;51448;51.660;5.824;2022-12-18T00:18:57;102735.59;;;-5.59;100.00
61119;BME280;51448;51.660;5.824;2022-12-18T00:21:26;102740.53;;;-5.62;100.00
61119;BME280;51448;51.660;5.824;2022-12-18T00:23:54;102741.97;;;-5.66;100.00
61119;BME280;51448;51.660;5.824;2022-12-18T00:26:25;102736.53;;;-5.70;100.00
61119;BME280;51448;51.660;5.824;2022-12-18T00:29:04;102731.66;;;-5.79;100.00
61119;BME280;51448;51.660;5.824;2022-12-18T00:31:43;102730.47;;;-5.84;100.00
61119;BME280;51448;51.660;5.824;2022-12-18T00:34:12;102726.03;;;-5.87;100.00
61119;BME280;51448;51.660;5.824;2022-12-18T00:36:41;102725.03;;;-5.89;100.00
61119;BME280;51448;51.660;5.824;2022-12-18T00:39:10;102718.09;;;-5.90;100.00
61119;BME280;51448;51.660;5.824;2022-12-18T00:41:39;102718.78;;;-5.92;100.00
61119;BME280;51448;51.660;5.824;2022-12-18T00:44:25;102727.25;;;-5.93;100.00
61119;BME280;51448;51.660;5.824;2022-12-18T00:46:52;102721.34;;;-5.92;100.00
61119;BME280;51448;51.660;5.824;2022-12-18T00:49:20;102723.91;;;-5.92;100.00
61119;BME280;51448;51.660;5.824;2022-12-18T00:51:48;102727.47;;;-5.90;100.00
61119;BME280;51448;51.660;5.824;2022-12-18T00:54:17;102719.91;;;-5.89;100.00
61119;BME280;51448;51.660;5.824;2022-12-18T00:56:44;102718.91;;;-5.91;100.00
61119;BME280;51448;51.660;5.824;2022-12-18T00:59:17;102714.44;;;-5.93;100.00
61119;BME280;51448;51.660;5.824;2022-12-18T01:01:45;102714.44;;;-5.93;100.00
61119;BME280;51448;51.660;5.824;2022-12-18T01:04:14;102717.72;;;-5.96;100.00
61119;BME280;51448;51.660;5.824;2022-12-18T01:06:45;102723.53;;;-5.98;100.00
61119;BME280;51448;51.660;5.824;2022-12-18T01:09:12;102721.72;;;-5.99;100.00
61119;BME280;51448;51.660;5.824;2022-12-18T01:11:40;102724.09;;;-6.02;100.00
61119;BME280;51448;51.660;5.824;2022-12-18T01:14:08;102726.34;;;-6.07;100.00
61119;BME280;51448;51.660;5.824;2022-12-18T01:16:37;102724.13;;;-6.14;99.80
61119;BME280;51448;51.660;5.824;2022-12-18T01:19:04;102713.44;;;-6.20;100.00
61119;BME280;51448;51.660;5.824;2022-12-18T01:21:32;102715.88;;;-6.22;100.00
61119;BME280;51448;51.660;5.824;2022-12-18T01:24:04;102729.50;;;-6.23;100.00
61119;BME280;51448;51.660;5.824;2022-12-18T01:26:32;102738.94;;;-6.22;100.00
61119;BME280;51448;51.660;5.824;2022-12-18T01:28:59;102742.31;;;-6.23;100.00
61119;BME280;51448;51.660;5.824;2022-12-18T01:31:31;102735.63;;;-6.21;100.00
61119;BME280;51448;51.660;5.824;2022-12-18T01:34:03;102731.25;;;-6.22;100.00
61119;BME280;51448;51.660;5.824;2022-12-18T01:36:36;102726.13;;;-6.22;100.00
61119;BME280;51448;51.660;5.824;2022-12-18T01:39:11;102721.94;;;-6.21;100.00
61119;BME280;51448;51.660;5.824;2022-12-18T01:41:41;102722.81;;;-6.21;100.00
61119;BME280;51448;51.660;5.824;2022-12-18T01:50:17;102718.69;;;-6.31;100.00
61119;BME280;51448;51.660;5.824;2022-12-18T01:52:50;102717.69;;;-6.33;100.00
61119;BME280;51448;51.660;5.824;2022-12-18T01:55:24;102734.88;;;-6.32;100.00
61119;BME280;51448;51.660;5.824;2022-12-18T01:57:57;102729.63;;;-6.33;100.00
61119;BME280;51448;51.660;5.824;2022-12-18T02:00:27;102714.16;;;-6.35;100.00
61119;BME280;51448;51.660;5.824;2022-12-18T02:02:55;102718.38;;;-6.35;100.00
61119;BME280;51448;51.660;5.824;2022-12-18T02:09:06;102713.94;;;-6.38;99.96
61119;BME280;51448;51.660;5.824;2022-12-18T02:14:40;102719.50;;;-6.43;100.00
61119;BME280;51448;51.660;5.824;2022-12-18T02:17:36;102722.84;;;-6.44;100.00
61119;BME280;51448;51.660;5.824;2022-12-18T02:20:20;102724.41;;;-6.47;99.81
61119;BME280;51448;51.660;5.824;2022-12-18T02:23:18;102719.84;;;-6.51;99.68
61119;BME280;51448;51.660;5.824;2022-12-18T02:26:25;102715.06;;;-6.58;99.71
61119;BME280;51448;51.660;5.824;2022-12-18T02:29:21;102718.75;;;-6.66;99.84
61119;BME280;51448;51.660;5.824;2022-12-18T02:32:00;102710.75;;;-6.71;99.31
61119;BME280;51448;51.660;5.824;2022-12-18T02:34:34;102706.41;;;-6.72;99.76
61119;BME280;51448;51.660;5.824;2022-12-18T02:37:12;102710.75;;;-6.71;99.56
61119;BME280;51448;51.660;5.824;2022-12-18T02:39:44;102714.19;;;-6.70;99.67
61119;BME280;51448;51.660;5.824;2022-12-18T02:42:16;102719.44;;;-6.69;100.00
61119;BME280;51448;51.660;5.824;2022-12-18T02:44:49;102716.06;;;-6.68;99.99
61119;BME280;51448;51.660;5.824;2022-12-18T02:47:32;102715.19;;;-6.68;99.86
61119;BME280;51448;51.660;5.824;2022-12-18T03:01:39;102696.50;;;-6.79;99.57
61119;BME280;51448;51.660;5.824;2022-12-18T03:04:31;102693.72;;;-6.82;99.46
61119;BME280;51448;51.660;5.824;2022-12-18T03:07:12;102685.72;;;-6.86;99.40
61119;BME280;51448;51.660;5.824;2022-12-18T03:09:48;102689.84;;;-6.89;99.24
61119;BME280;51448;51.660;5.824;2022-12-18T03:12:32;102682.72;;;-6.93;99.70
61119;BME280;51448;51.660;5.824;2022-12-18T03:17:53;102689.16;;;-6.98;99.28
61119;BME280;51448;51.660;5.824;2022-12-18T03:20:34;102699.16;;;-7.01;98.97
61119;BME280;51448;51.660;5.824;2022-12-18T03:23:10;102707.59;;;-7.02;99.38
61119;BME280;51448;51.660;5.824;2022-12-18T03:25:47;102690.63;;;-7.01;99.69
61119;BME280;51448;51.660;5.824;2022-12-18T03:28:21;102698.28;;;-7.01;99.33
61119;BME280;51448;51.660;5.824;2022-12-18T03:30:57;102701.59;;;-7.02;99.08
61119;BME280;51448;51.660;5.824;2022-12-18T03:33:41;102706.59;;;-7.04;99.05
61119;BME280;51448;51.660;5.824;2022-12-18T03:36:15;102692.06;;;-7.05;99.57
61119;BME280;51448;51.660;5.824;2022-12-18T03:38:42;102689.63;;;-7.03;99.76
61119;BME280;51448;51.660;5.824;2022-12-18T03:41:31;102689.69;;;-7.02;99.19
61119;BME280;51448;51.660;5.824;2022-12-18T03:44:41;102685.38;;;-7.03;99.10
61119;BME280;51448;51.660;5.824;2022-12-18T03:50:39;102672.59;;;-7.03;98.76
61119;BME280;51448;51.660;5.824;2022-12-18T03:56:03;102663.13;;;-7.04;99.34
61119;BME280;51448;51.660;5.824;2022-12-18T03:58:38;102659.81;;;-7.03;99.05
61119;BME280;51448;51.660;5.824;2022-12-18T04:01:17;102654.69;;;-7.03;99.39
61119;BME280;51448;51.660;5.824;2022-12-18T04:03:50;102646.22;;;-7.02;98.94
61119;BME280;51448;51.660;5.824;2022-12-18T04:06:20;102642.91;;;-7.01;99.02
61119;BME280;51448;51.660;5.824;2022-12-18T04:08:48;102644.78;;;-6.98;99.05
61119;BME280;51448;51.660;5.824;2022-12-18T04:11:20;102650.91;;;-6.96;99.38
61119;BME280;51448;51.660;5.824;2022-12-18T04:13:48;102645.91;;;-6.95;99.62
61119;BME280;51448;51.660;5.824;2022-12-18T04:16:22;102640.78;;;-6.95;99.23
61119;BME280;51448;51.660;5.824;2022-12-18T04:18:53;102648.47;;;-6.95;99.05
61119;BME280;51448;51.660;5.824;2022-12-18T04:21:23;102641.53;;;-6.96;99.76
61119;BME280;51448;51.660;5.824;2022-12-18T04:23:52;102640.91;;;-6.93;99.70
61119;BME280;51448;51.660;5.824;2022-12-18T04:26:22;102640.91;;;-6.93;99.76
61119;BME280;51448;51.660;5.824;2022-12-18T04:29:15;102630.00;;;-6.91;99.81
61119;BME280;51448;51.660;5.824;2022-12-18T04:31:43;102619.88;;;-6.89;99.01
61119;BME280;51448;51.660;5.824;2022-12-18T04:34:11;102624.06;;;-6.90;99.19
61119;BME280;51448;51.660;5.824;2022-12-18T04:36:46;102626.63;;;-6.90;99.32
61119;BME280;51448;51.660;5.824;2022-12-18T04:39:14;102621.53;;;-6.90;99.30
61119;BME280;51448;51.660;5.824;2022-12-18T04:41:47;102614.63;;;-6.91;99.17
61119;BME280;51448;51.660;5.824;2022-12-18T04:44:14;102621.53;;;-6.90;99.54
61119;BME280;51448;51.660;5.824;2022-12-18T04:46:42;102619.06;;;-6.88;99.17
61119;BME280;51448;51.660;5.824;2022-12-18T04:49:10;102622.44;;;-6.89;99.39
61119;BME280;51448;51.660;5.824;2022-12-18T04:51:38;102632.66;;;-6.89;99.13
61119;BME280;51448;51.660;5.824;2022-12-18T04:54:05;102629.31;;;-6.88;99.84
61119;BME280;51448;51.660;5.824;2022-12-18T04:56:33;102638.00;;;-6.86;99.95
61119;BME280;51448;51.660;5.824;2022-12-18T04:59:01;102628.63;;;-6.85;99.74
61119;BME280;51448;51.660;5.824;2022-12-18T05:01:28;102631.19;;;-6.85;99.80
61119;BME280;51448;51.660;5.824;2022-12-18T05:04:02;102637.31;;;-6.83;99.41
61119;BME280;51448;51.660;5.824;2022-12-18T05:06:29;102637.31;;;-6.83;99.41
61119;BME280;51448;51.660;5.824;2022-12-18T05:08:57;102649.34;;;-6.82;99.40
61119;BME280;51448;51.660;5.824;2022-12-18T05:11:26;102653.66;;;-6.81;99.54
61119;BME280;51448;51.660;5.824;2022-12-18T05:13:54;102656.22;;;-6.81;99.95
61119;BME280;51448;51.660;5.824;2022-12-18T05:16:21;102669.94;;;-6.81;99.56
61119;BME280;51448;51.660;5.824;2022-12-18T05:18:49;102676.94;;;-6.78;99.45
61119;BME280;51448;51.660;5.824;2022-12-18T05:21:16;102688.94;;;-6.77;99.31
61119;BME280;51448;51.660;5.824;2022-12-18T05:23:44;102683.03;;;-6.76;99.96
61119;BME280;51448;51.660;5.824;2022-12-18T05:26:15;102689.84;;;-6.77;99.36
61119;BME280;51448;51.660;5.824;2022-12-18T05:28:45;102684.47;;;-6.80;99.55
61119;BME280;51448;51.660;5.824;2022-12-18T05:31:14;102681.81;;;-6.81;99.06
61119;BME280;51448;51.660;5.824;2022-12-18T05:33:41;102674.69;;;-6.85;98.99
61119;BME280;51448;51.660;5.824;2022-12-18T05:36:10;102682.16;;;-6.89;99.20
61119;BME280;51448;51.660;5.824;2022-12-18T05:38:38;102676.72;;;-6.93;99.17
61119;BME280;51448;51.660;5.824;2022-12-18T05:41:07;102672.25;;;-6.96;98.91
61119;BME280;51448;51.660;5.824;2022-12-18T05:43:36;102672.25;;;-6.96;99.01
61119;BME280;51448;51.660;5.824;2022-12-18T05:46:08;102675.81;;;-6.94;99.57
61119;BME280;51448;51.660;5.824;2022-12-18T05:48:39;102675.03;;;-6.93;99.52
61119;BME280;51448;51.660;5.824;2022-12-18T05:51:09;102664.69;;;-6.94;99.36
61119;BME280;51448;51.660;5.824;2022-12-18T05:53:42;102653.34;;;-6.98;99.00
61119;BME280;51448;51.660;5.824;2022-12-18T05:56:21;102657.44;;;-7.00;98.84
61119;BME280;51448;51.660;5.824;2022-12-18T05:58:53;102653.00;;;-7.02;98.48
61119;BME280;51448;51.660;5.824;2022-12-18T06:01:23;102652.88;;;-7.04;99.16
61119;BME280;51448;51.660;5.824;2022-12-18T06:03:53;102642.56;;;-7.05;98.53
61119;BME280;51448;51.660;5.824;2022-12-18T06:06:24;102646.00;;;-7.05;99.37
61119;BME280;51448;51.660;5.824;2022-12-18T06:08:54;102638.34;;;-7.05;99.05
61119;BME280;51448;51.660;5.824;2022-12-18T06:11:25;102641.09;;;-7.02;99.14
61119;BME280;51448;51.660;5.824;2022-12-18T06:13:55;102619.00;;;-7.01;99.46
61119;BME280;51448;51.660;5.824;2022-12-18T06:16:26;102615.97;;;-6.96;99.09
61119;BME280;51448;51.660;5.824;2022-12-18T06:18:59;102611.28;;;-6.90;99.21
61119;BME280;51448;51.660;5.824;2022-12-18T06:21:28;102614.19;;;-6.85;99.99
61119;BME280;51448;51.660;5.824;2022-12-18T06:23:57;102620.63;;;-6.78;99.66
61119;BME280;51448;51.660;5.824;2022-12-18T06:26:25;102619.28;;;-6.73;99.43
61119;BME280;51448;51.660;5.824;2022-12-18T06:28:54;102626.50;;;-6.68;100.00
61119;BME280;51448;51.660;5.824;2022-12-18T06:31:22;102626.81;;;-6.63;99.82
61119;BME280;51448;51.660;5.824;2022-12-18T06:33:50;102622.81;;;-6.59;99.41
61119;BME280;51448;51.660;5.824;2022-12-18T06:36:17;102618.00;;;-6.55;99.94
61119;BME280;51448;51.660;5.824;2022-12-18T06:38:45;102607.88;;;-6.53;99.61
61119;BME280;51448;51.660;5.824;2022-12-18T06:41:17;102617.56;;;-6.49;99.59
61119;BME280;51448;51.660;5.824;2022-12-18T06:43:47;102609.19;;;-6.47;99.62
61119;BME280;51448;51.660;5.824;2022-12-18T06:46:14;102607.63;;;-6.44;99.64
61119;BME280;51448;51.660;5.824;2022-12-18T06:48:42;102605.19;;;-6.43;99.82
61119;BME280;51448;51.660;5.824;2022-12-18T06:51:09;102599.38;;;-6.40;99.61
61119;BME280;51448;51.660;5.824;2022-12-18T06:53:37;102589.13;;;-6.40;99.55
61119;BME280;51448;51.660;5.824;2022-12-18T06:56:06;102594.25;;;-6.40;99.85
61119;BME280;51448;51.660;5.824;2022-12-18T06:58:40;102604.59;;;-6.39;99.64
61119;BME280;51448;51.660;5.824;2022-12-18T07:01:10;102604.72;;;-6.37;99.35
61119;BME280;51448;51.660;5.824;2022-12-18T07:03:39;102597.22;;;-6.34;99.59
61119;BME280;51448;51.660;5.824;2022-12-18T07:06:20;102600.03;;;-6.31;99.76
61119;BME280;51448;51.660;5.824;2022-12-18T07:08:49;102595.31;;;-6.25;99.91
61119;BME280;51448;51.660;5.824;2022-12-18T07:11:17;102593.94;;;-6.20;99.65
61119;BME280;51448;51.660;5.824;2022-12-18T07:13:45;102585.03;;;-6.13;100.00
61119;BME280;51448;51.660;5.824;2022-12-18T07:16:16;102582.09;;;-6.06;100.00
61119;BME280;51448;51.660;5.824;2022-12-18T07:18:54;102586.84;;;-5.99;100.00
61119;BME280;51448;51.660;5.824;2022-12-18T07:21:23;102589.88;;;-5.91;100.00
61119;BME280;51448;51.660;5.824;2022-12-18T07:23:51;102583.50;;;-5.84;100.00
61119;BME280;51448;51.660;5.824;2022-12-18T07:26:20;102581.44;;;-5.77;99.97
61119;BME280;51448;51.660;5.824;2022-12-18T07:28:49;102580.94;;;-5.71;99.96
61119;BME280;51448;51.660;5.824;2022-12-18T07:31:20;102576.94;;;-5.68;100.00
61119;BME280;51448;51.660;5.824;2022-12-18T07:33:49;102576.34;;;-5.63;100.00
61119;BME280;51448;51.660;5.824;2022-12-18T07:36:18;102580.88;;;-5.59;100.00
61119;BME280;51448;51.660;5.824;2022-12-18T07:38:49;102575.88;;;-5.58;100.00
61119;BME280;51448;51.660;5.824;2022-12-18T07:41:19;102567.47;;;-5.55;99.88
61119;BME280;51448;51.660;5.824;2022-12-18T07:43:47;102572.00;;;-5.51;100.00
61119;BME280;51448;51.660;5.824;2022-12-18T07:46:15;102572.31;;;-5.47;100.00
61119;BME280;51448;51.660;5.824;2022-12-18T07:48:44;102558.72;;;-5.46;99.97
61119;BME280;51448;51.660;5.824;2022-12-18T07:51:17;102555.56;;;-5.41;99.48
61119;BME280;51448;51.660;5.824;2022-12-18T07:53:46;102546.19;;;-5.41;99.66
61119;BME280;51448;51.660;5.824;2022-12-18T07:56:18;102537.91;;;-5.37;99.38
61119;BME280;51448;51.660;5.824;2022-12-18T07:58:56;102540.63;;;-5.34;99.76
61119;BME280;51448;51.660;5.824;2022-12-18T08:01:25;102537.41;;;-5.31;99.65
61119;BME280;51448;51.660;5.824;2022-12-18T08:03:53;102544.50;;;-5.27;100.00
61119;BME280;51448;51.660;5.824;2022-12-18T08:06:20;102535.31;;;-5.23;99.78
61119;BME280;51448;51.660;5.824;2022-12-18T08:08:51;102528.00;;;-5.17;99.63
61119;BME280;51448;51.660;5.824;2022-12-18T08:11:25;102524.06;;;-5.12;99.68
61119;BME280;51448;51.660;5.824;2022-12-18T08:13:53;102533.72;;;-5.08;99.56
61119;BME280;51448;51.660;5.824;2022-12-18T08:16:23;102529.75;;;-5.03;100.00
61119;BME280;51448;51.660;5.824;2022-12-18T08:18:52;102528.38;;;-4.98;99.16
61119;BME280;51448;51.660;5.824;2022-12-18T08:21:24;102535.66;;;-4.91;99.64
61119;BME280;51448;51.660;5.824;2022-12-18T08:23:55;102529.91;;;-4.87;99.24
61119;BME280;51448;51.660;5.824;2022-12-18T08:26:26;102531.97;;;-4.81;99.08
61119;BME280;51448;51.660;5.824;2022-12-18T08:28:56;102519.41;;;-4.76;98.88
61119;BME280;51448;51.660;5.824;2022-12-18T08:31:27;102531.75;;;-4.71;99.07
61119;BME280;51448;51.660;5.824;2022-12-18T08:33:56;102523.53;;;-4.65;99.18
61119;BME280;51448;51.660;5.824;2022-12-18T08:36:24;102531.72;;;-4.57;98.80
61119;BME280;51448;51.660;5.824;2022-12-18T08:38:53;102521.88;;;-4.50;99.20
61119;BME280;51448;51.660;5.824;2022-12-18T08:41:21;102516.34;;;-4.42;98.60
61119;BME280;51448;51.660;5.824;2022-12-18T08:43:49;102518.31;;;-4.38;98.29
61119;BME280;51448;51.660;5.824;2022-12-18T08:46:40;102528.06;;;-4.33;98.48
61119;BME280;51448;51.660;5.824;2022-12-18T08:49:10;102539.59;;;-4.26;98.34
61119;BME280;51448;51.660;5.824;2022-12-18T08:51:39;102537.28;;;-4.21;98.00
61119;BME280;51448;51.660;5.824;2022-12-18T08:54:07;102523.91;;;-4.16;98.29
61119;BME280;51448;51.660;5.824;2022-12-18T08:56:38;102530.19;;;-4.11;98.40
61119;BME280;51448;51.660;5.824;2022-12-18T08:59:06;102513.38;;;-4.06;97.93
61119;BME280;51448;51.660;5.824;2022-12-18T09:01:33;102516.09;;;-4.02;97.77
61119;BME280;51448;51.660;5.824;2022-12-18T09:04:01;102509.66;;;-3.96;97.71
61119;BME280;51448;51.660;5.824;2022-12-18T09:06:32;102509.13;;;-3.90;97.13
61119;BME280;51448;51.660;5.824;2022-12-18T09:09:00;102509.41;;;-3.86;97.49
61119;BME280;51448;51.660;5.824;2022-12-18T09:11:29;102512.47;;;-3.76;97.07
61119;BME280;51448;51.660;5.824;2022-12-18T09:13:58;102512.84;;;-3.70;96.85
61119;BME280;51448;51.660;5.824;2022-12-18T09:16:28;102513.28;;;-3.62;97.09
61119;BME280;51448;51.660;5.824;2022-12-18T09:18:59;102507.59;;;-3.57;96.87
61119;BME280;51448;51.660;5.824;2022-12-18T09:21:33;102495.09;;;-3.51;96.78
61119;BME280;51448;51.660;5.824;2022-12-18T09:24:13;102497.91;;;-3.46;96.09
61119;BME280;51448;51.660;5.824;2022-12-18T09:26:41;102513.59;;;-3.41;96.07
61119;BME280;51448;51.660;5.824;2022-12-18T09:29:15;102520.78;;;-3.36;96.47
61119;BME280;51448;51.660;5.824;2022-12-18T09:31:45;102527.00;;;-3.32;96.32
61119;BME280;51448;51.660;5.824;2022-12-18T09:34:13;102523.84;;;-3.27;96.25
61119;BME280;51448;51.660;5.824;2022-12-18T09:36:40;102516.56;;;-3.19;96.38
61119;BME280;51448;51.660;5.824;2022-12-18T09:39:09;102527.19;;;-3.13;96.12
61119;BME280;51448;51.660;5.824;2022-12-18T09:41:44;102511.19;;;-3.07;95.78
61119;BME280;51448;51.660;5.824;2022-12-18T09:44:30;102508.97;;;-3.01;95.17
61119;BME280;51448;51.660;5.824;2022-12-18T09:47:21;102504.94;;;-2.96;94.34
61119;BME280;51448;51.660;5.824;2022-12-18T09:49:58;102500.06;;;-2.91;94.61
61119;BME280;51448;51.660;5.824;2022-12-18T09:52:44;102500.38;;;-2.85;94.40
61119;BME280;51448;51.660;5.824;2022-12-18T09:55:34;102504.06;;;-2.80;94.13
61119;BME280;51448;51.660;5.824;2022-12-18T09:58:17;102505.13;;;-2.76;94.14
61119;BME280;51448;51.660;5.824;2022-12-18T10:00:52;102509.72;;;-2.71;94.06
61119;BME280;51448;51.660;5.824;2022-12-18T10:03:21;102492.91;;;-2.64;94.02
61119;BME280;51448;51.660;5.824;2022-12-18T10:06:11;102484.66;;;-2.57;94.27
61119;BME280;51448;51.660;5.824;2022-12-18T10:08:50;102475.50;;;-2.52;93.76
61119;BME280;51448;51.660;5.824;2022-12-18T10:11:32;102468.88;;;-2.47;93.77
61119;BME280;51448;51.660;5.824;2022-12-18T10:19:48;102456.94;;;-2.28;92.58
61119;BME280;51448;51.660;5.824;2022-12-18T10:25:19;102456.66;;;-2.16;92.59
61119;BME280;51448;51.660;5.824;2022-12-18T10:28:07;102461.34;;;-2.09;92.84
61119;BME280;51448;51.660;5.824;2022-12-18T10:30:40;102458.97;;;-2.05;92.36
61119;BME280;51448;51.660;5.824;2022-12-18T10:33:12;102461.94;;;-1.97;92.13
61119;BME280;51448;51.660;5.824;2022-12-18T10:35:48;102473.44;;;-1.90;92.04
61119;BME280;51448;51.660;5.824;2022-12-18T10:43:24;102461.22;;;-1.76;90.92
61119;BME280;51448;51.660;5.824;2022-12-18T10:46:13;102458.84;;;-1.72;90.99
61119;BME280;51448;51.660;5.824;2022-12-18T10:48:49;102454.66;;;-1.70;91.23
61119;BME280;51448;51.660;5.824;2022-12-18T10:51:31;102442.84;;;-1.65;90.24
61119;BME280;51448;51.660;5.824;2022-12-18T10:54:05;102428.28;;;-1.64;89.19
61119;BME280;51448;51.660;5.824;2022-12-18T10:56:42;102427.53;;;-1.62;89.48
61119;BME280;51448;51.660;5.824;2022-12-18T10:59:13;102420.81;;;-1.58;89.31
61119;BME280;51448;51.660;5.824;2022-12-18T11:01:56;102419.41;;;-1.51;89.28
61119;BME280;51448;51.660;5.824;2022-12-18T11:04:28;102407.53;;;-1.48;89.99
61119;BME280;51448;51.660;5.824;2022-12-18T11:07:08;102403.53;;;-1.41;89.25
61119;BME280;51448;51.660;5.824;2022-12-18T11:09:37;102389.94;;;-1.37;89.60
61119;BME280;51448;51.660;5.824;2022-12-18T11:14:51;102387.66;;;-1.31;88.18
61119;BME280;51448;51.660;5.824;2022-12-18T11:17:30;102387.72;;;-1.29;88.29
61119;BME280;51448;51.660;5.824;2022-12-18T11:20:19;102386.97;;;-1.27;88.30
61119;BME280;51448;51.660;5.824;2022-12-18T11:22:57;102373.38;;;-1.23;87.98
61119;BME280;51448;51.660;5.824;2022-12-18T11:25:29;102378.66;;;-1.19;88.26
61119;BME280;51448;51.660;5.824;2022-12-18T11:28:08;102373.66;;;-1.16;87.04
61119;BME280;51448;51.660;5.824;2022-12-18T11:31:24;102377.28;;;-1.13;87.54
61119;BME280;51448;51.660;5.824;2022-12-18T11:34:31;102368.78;;;-1.10;87.59
61119;BME280;51448;51.660;5.824;2022-12-18T11:36:58;102358.72;;;-1.04;88.34
61119;BME280;51448;51.660;5.824;2022-12-18T11:39:42;102361.56;;;-0.98;87.65
61119;BME280;51448;51.660;5.824;2022-12-18T11:42:20;102368.56;;;-0.95;87.44
61119;BME280;51448;51.660;5.824;2022-12-18T11:44:59;102375.75;;;-0.88;87.92
61119;BME280;51448;51.660;5.824;2022-12-18T11:47:49;102382.00;;;-0.83;87.79
61119;BME280;51448;51.660;5.824;2022-12-18T11:50:21;102389.91;;;-0.80;87.90
61119;BME280;51448;51.660;5.824;2022-12-18T11:52:52;102377.09;;;-0.77;88.01
61119;BME280;51448;51.660;5.824;2022-12-18T12:01:40;102351.59;;;-0.69;86.72
61119;BME280;51448;51.660;5.824;2022-12-18T12:07:21;102349.47;;;-0.58;87.48
61119;BME280;51448;51.660;5.824;2022-12-18T12:16:24;102331.53;;;-0.54;85.47
61119;BME280;51448;51.660;5.824;2022-12-18T12:19:18;102327.28;;;-0.53;84.81
61119;BME280;51448;51.660;5.824;2022-12-18T12:22:14;102323.00;;;-0.53;85.18
61119;BME280;51448;51.660;5.824;2022-12-18T12:28:07;102317.94;;;-0.50;84.91
61119;BME280;51448;51.660;5.824;2022-12-18T12:33:51;102315.66;;;-0.42;85.41
61119;BME280;51448;51.660;5.824;2022-12-18T12:39:36;102315.81;;;-0.39;84.59
61119;BME280;51448;51.660;5.824;2022-12-18T12:42:15;102308.09;;;-0.37;84.30
61119;BME280;51448;51.660;5.824;2022-12-18T12:45:16;102294.28;;;-0.38;84.00
61119;BME280;51448;51.660;5.824;2022-12-18T12:47:52;102289.97;;;-0.39;84.23
61119;BME280;51448;51.660;5.824;2022-12-18T12:50:22;102285.75;;;-0.35;84.49
61119;BME280;51448;51.660;5.824;2022-12-18T12:53:19;102283.25;;;-0.34;83.71
61119;BME280;51448;51.660;5.824;2022-12-18T12:57:32;102275.44;;;-0.35;83.79
61119;BME280;51448;51.660;5.824;2022-12-18T13:11:48;102252.84;;;-0.39;83.30
61119;BME280;51448;51.660;5.824;2022-12-18T13:14:37;102245.06;;;-0.41;83.65
61119;BME280;51448;51.660;5.824;2022-12-18T13:19:52;102235.84;;;-0.34;83.74
61119;BME280;51448;51.660;5.824;2022-12-18T13:22:35;102232.41;;;-0.33;83.89
61119;BME280;51448;51.660;5.824;2022-12-18T13:25:36;102233.34;;;-0.31;84.12
61119;BME280;51448;51.660;5.824;2022-12-18T13:38:01;102221.28;;;-0.32;84.00
61119;BME280;51448;51.660;5.824;2022-12-18T13:43:56;102224.91;;;-0.27;83.66
61119;BME280;51448;51.660;5.824;2022-12-18T13:46:45;102224.78;;;-0.30;83.38
61119;BME280;51448;51.660;5.824;2022-12-18T13:50:35;102229.91;;;-0.32;83.88
61119;BME280;51448;51.660;5.824;2022-12-18T14:00:14;102217.13;;;-0.27;84.10
61119;BME280;51448;51.660;5.824;2022-12-18T14:03:44;102205.13;;;-0.27;84.07
61119;BME280;51448;51.660;5.824;2022-12-18T14:07:19;102205.13;;;-0.27;84.72
61119;BME280;51448;51.660;5.824;2022-12-18T14:14:44;102201.53;;;-0.30;84.05
61119;BME280;51448;51.660;5.824;2022-12-18T14:18:33;102202.47;;;-0.28;84.72
61119;BME280;51448;51.660;5.824;2022-12-18T14:21:47;102195.59;;;-0.28;84.18
61119;BME280;51448;51.660;5.824;2022-12-18T14:24:25;102195.50;;;-0.29;83.77
61119;BME280;51448;51.660;5.824;2022-12-18T14:27:24;102180.84;;;-0.30;82.74
61119;BME280;51448;51.660;5.824;2022-12-18T14:30:01;102191.25;;;-0.29;83.38
61119;BME280;51448;51.660;5.824;2022-12-18T14:37:49;102192.00;;;-0.31;83.33
61119;BME280;51448;51.660;5.824;2022-12-18T14:41:21;102191.13;;;-0.32;83.64
61119;BME280;51448;51.660;5.824;2022-12-18T14:43:56;102192.00;;;-0.31;83.92
61119;BME280;51448;51.660;5.824;2022-12-18T14:46:45;102192.00;;;-0.31;82.57
61119;BME280;51448;51.660;5.824;2022-12-18T14:49:48;102181.47;;;-0.36;83.18
61119;BME280;51448;51.660;5.824;2022-12-18T14:52:36;102176.44;;;-0.33;82.87
61119;BME280;51448;51.660;5.824;2022-12-18T14:55:46;102183.19;;;-0.36;83.19
61119;BME280;51448;51.660;5.824;2022-12-18T14:58:21;102180.59;;;-0.36;83.29
61119;BME280;51448;51.660;5.824;2022-12-18T15:00:49;102170.34;;;-0.35;82.80
61119;BME280;51448;51.660;5.824;2022-12-18T15:03:21;102178.97;;;-0.34;81.63
61119;BME280;51448;51.660;5.824;2022-12-18T15:07:12;102171.03;;;-0.39;81.56
61119;BME280;51448;51.660;5.824;2022-12-18T15:10:10;102175.22;;;-0.43;81.41
61119;BME280;51448;51.660;5.824;2022-12-18T15:13:08;102163.09;;;-0.44;81.28
61119;BME280;51448;51.660;5.824;2022-12-18T15:15:47;102169.91;;;-0.46;81.74
61119;BME280;51448;51.660;5.824;2022-12-18T15:18:18;102170.84;;;-0.44;81.28
61119;BME280;51448;51.660;5.824;2022-12-18T15:20:56;102159.63;;;-0.44;81.52
61119;BME280;51448;51.660;5.824;2022-12-18T15:23:52;102152.75;;;-0.44;81.66
61119;BME280;51448;51.660;5.824;2022-12-18T15:26:36;102150.88;;;-0.48;81.45
61119;BME280;51448;51.660;5.824;2022-12-18T15:29:19;102153.44;;;-0.48;81.39
61119;BME280;51448;51.660;5.824;2022-12-18T15:32:32;102157.56;;;-0.53;81.16
61119;BME280;51448;51.660;5.824;2022-12-18T15:35:21;102152.50;;;-0.50;81.55